Terminal Aerodrome Forecast
Issued by NWS Twin Cities, MN

Home | Current Version | Previous Version | Graphics & Text | Print | Product List | Glossary On
Versions: 1 2 3 4 5 6 7 8 9 10 11 12
000
FTUS43 KMPX 262339
TAFSTC
TAF
KSTC 262339Z 2700/2724 13004KT P6SM SCT100 BKN250
     FM270300 00000KT P6SM BKN250
     FM271300 13005KT P6SM FEW150 BKN250
     FM271700 15009KT P6SM SCT050 BKN150=

USA.gov is the U.S. government's official web portal to all federal, state and local government web resources and services.